sensor_id;sensor_type;location;lat;lon;timestamp;pressure;altitude;pressure_sealevel;temperature;humidity
10482;BME280;5288;42.334;23.876;2022-12-24T00:00:14;56517.81;;;-140.56;78.10
10482;BME280;5288;42.334;23.876;2022-12-24T00:02:41;56513.88;;;-140.56;77.97
10482;BME280;5288;42.334;23.876;2022-12-24T00:05:10;56517.81;;;-140.56;77.63
10482;BME280;5288;42.334;23.876;2022-12-24T00:07:37;56498.06;;;-140.56;77.46
10482;BME280;5288;42.334;23.876;2022-12-24T00:10:04;56505.97;;;-140.56;78.18
10482;BME280;5288;42.334;23.876;2022-12-24T00:12:31;56549.44;;;-140.56;78.37
10482;BME280;5288;42.334;23.876;2022-12-24T00:14:58;56494.09;;;-140.56;79.07
10482;BME280;5288;42.334;23.876;2022-12-24T00:17:25;56533.63;;;-140.56;79.23
10482;BME280;5288;42.334;23.876;2022-12-24T00:19:52;56519.81;;;-140.56;80.78
10482;BME280;5288;42.334;23.876;2022-12-24T00:22:21;56500.03;;;-140.56;80.86
10482;BME280;5288;42.334;23.876;2022-12-24T00:24:47;56527.72;;;-140.56;81.14
10482;BME280;5288;42.334;23.876;2022-12-24T00:27:14;56529.69;;;-140.56;81.19
10482;BME280;5288;42.334;23.876;2022-12-24T00:29:41;56509.91;;;-140.56;81.30
10482;BME280;5288;42.334;23.876;2022-12-24T00:32:08;56527.72;;;-140.56;80.91
10482;BME280;5288;42.334;23.876;2022-12-24T00:34:35;56531.66;;;-140.56;81.36
10482;BME280;5288;42.334;23.876;2022-12-24T00:37:02;56519.81;;;-140.56;81.46
10482;BME280;5288;42.334;23.876;2022-12-24T00:39:31;56519.81;;;-140.56;81.37
10482;BME280;5288;42.334;23.876;2022-12-24T00:41:58;56502.00;;;-140.56;80.96
10482;BME280;5288;42.334;23.876;2022-12-24T00:44:25;56484.22;;;-140.56;80.62
10482;BME280;5288;42.334;23.876;2022-12-24T00:46:52;56519.81;;;-140.56;81.10
10482;BME280;5288;42.334;23.876;2022-12-24T00:49:19;56511.91;;;-140.56;80.72
10482;BME280;5288;42.334;23.876;2022-12-24T00:51:46;56502.00;;;-140.56;79.98
10482;BME280;5288;42.334;23.876;2022-12-24T00:54:13;56531.66;;;-140.56;80.29
10482;BME280;5288;42.334;23.876;2022-12-24T00:56:41;56484.22;;;-140.56;80.53
10482;BME280;5288;42.334;23.876;2022-12-24T00:59:08;56502.00;;;-140.56;80.33
10482;BME280;5288;42.334;23.876;2022-12-24T01:01:35;56494.09;;;-140.56;80.17
10482;BME280;5288;42.334;23.876;2022-12-24T01:04:02;56519.81;;;-140.56;80.33
10482;BME280;5288;42.334;23.876;2022-12-24T01:06:46;56543.50;;;-140.56;80.01
10482;BME280;5288;42.334;23.876;2022-12-24T01:09:13;56543.50;;;-140.56;80.37
10482;BME280;5288;42.334;23.876;2022-12-24T01:11:42;56507.94;;;-140.56;80.53
10482;BME280;5288;42.334;23.876;2022-12-24T01:14:09;56529.69;;;-140.56;81.00
10482;BME280;5288;42.334;23.876;2022-12-24T01:16:35;56517.81;;;-140.56;81.56
10482;BME280;5288;42.334;23.876;2022-12-24T01:19:03;56492.13;;;-140.56;81.51
10482;BME280;5288;42.334;23.876;2022-12-24T01:21:30;56496.09;;;-140.56;81.34
10482;BME280;5288;42.334;23.876;2022-12-24T01:23:56;56504.00;;;-140.56;82.45
10482;BME280;5288;42.334;23.876;2022-12-24T01:26:23;56521.78;;;-140.56;82.97
10482;BME280;5288;42.334;23.876;2022-12-24T01:28:52;56567.22;;;-140.56;82.93
10482;BME280;5288;42.334;23.876;2022-12-24T01:31:19;56505.97;;;-140.56;82.52
10482;BME280;5288;42.334;23.876;2022-12-24T01:33:48;56515.84;;;-140.56;83.02
10482;BME280;5288;42.334;23.876;2022-12-24T01:36:15;56547.47;;;-140.56;82.55
10482;BME280;5288;42.334;23.876;2022-12-24T01:38:42;56521.78;;;-140.56;82.14
10482;BME280;5288;42.334;23.876;2022-12-24T01:41:14;56541.53;;;-140.56;83.07
10482;BME280;5288;42.334;23.876;2022-12-24T01:44:23;56531.66;;;-140.56;83.25
10482;BME280;5288;42.334;23.876;2022-12-24T01:46:54;56498.06;;;-140.56;83.73
10482;BME280;5288;42.334;23.876;2022-12-24T01:49:24;56523.75;;;-140.56;83.53
10482;BME280;5288;42.334;23.876;2022-12-24T01:51:53;56521.78;;;-140.56;83.58
10482;BME280;5288;42.334;23.876;2022-12-24T01:54:24;56527.72;;;-140.56;83.47
10482;BME280;5288;42.334;23.876;2022-12-24T01:56:57;56505.97;;;-140.56;83.63
10482;BME280;5288;42.334;23.876;2022-12-24T01:59:28;56521.78;;;-140.56;84.16
10482;BME280;5288;42.334;23.876;2022-12-24T02:01:55;56529.69;;;-140.56;84.34
10482;BME280;5288;42.334;23.876;2022-12-24T02:04:28;56539.56;;;-140.56;83.53
10482;BME280;5288;42.334;23.876;2022-12-24T02:06:58;56517.81;;;-140.56;83.24
10482;BME280;5288;42.334;23.876;2022-12-24T02:09:25;56505.97;;;-140.56;83.12
10482;BME280;5288;42.334;23.876;2022-12-24T02:11:52;56505.97;;;-140.56;83.47
10482;BME280;5288;42.334;23.876;2022-12-24T02:14:20;56480.28;;;-140.56;83.40
10482;BME280;5288;42.334;23.876;2022-12-24T02:16:52;56504.00;;;-140.56;82.87
10482;BME280;5288;42.334;23.876;2022-12-24T02:22:26;56498.06;;;-140.56;82.37
10482;BME280;5288;42.334;23.876;2022-12-24T02:25:16;56519.81;;;-140.56;83.09
10482;BME280;5288;42.334;23.876;2022-12-24T02:27:54;56527.72;;;-140.56;82.63
10482;BME280;5288;42.334;23.876;2022-12-24T02:30:28;56545.50;;;-140.56;82.93
10482;BME280;5288;42.334;23.876;2022-12-24T02:33:07;56517.81;;;-140.56;82.61
10482;BME280;5288;42.334;23.876;2022-12-24T02:35:41;56519.81;;;-140.56;81.96
10482;BME280;5288;42.334;23.876;2022-12-24T02:38:13;56502.00;;;-140.56;81.98
10482;BME280;5288;42.334;23.876;2022-12-24T02:40:46;56515.84;;;-140.56;81.14
10482;BME280;5288;42.334;23.876;2022-12-24T02:43:19;56527.72;;;-140.56;81.04
10482;BME280;5288;42.334;23.876;2022-12-24T02:45:52;56519.81;;;-140.56;80.77
10482;BME280;5288;42.334;23.876;2022-12-24T02:48:21;56521.78;;;-140.56;81.46
10482;BME280;5288;42.334;23.876;2022-12-24T02:50:54;56496.09;;;-140.56;80.92
10482;BME280;5288;42.334;23.876;2022-12-24T02:53:21;56519.81;;;-140.56;80.70
10482;BME280;5288;42.334;23.876;2022-12-24T02:55:59;56549.44;;;-140.56;80.85
10482;BME280;5288;42.334;23.876;2022-12-24T02:58:38;56496.09;;;-140.56;81.48
10482;BME280;5288;42.334;23.876;2022-12-24T03:01:16;56521.78;;;-140.56;81.06
10482;BME280;5288;42.334;23.876;2022-12-24T03:04:00;56505.97;;;-140.56;81.98
10482;BME280;5288;42.334;23.876;2022-12-24T03:06:39;56502.00;;;-140.56;82.16
10482;BME280;5288;42.334;23.876;2022-12-24T03:09:14;56527.72;;;-140.56;82.53
10482;BME280;5288;42.334;23.876;2022-12-24T03:11:48;56571.19;;;-140.56;83.26
10482;BME280;5288;42.334;23.876;2022-12-24T03:14:20;56521.78;;;-140.56;83.84
10482;BME280;5288;42.334;23.876;2022-12-24T03:16:50;56531.66;;;-140.56;84.01
10482;BME280;5288;42.334;23.876;2022-12-24T03:19:17;56567.22;;;-140.56;84.45
10482;BME280;5288;42.334;23.876;2022-12-24T03:21:47;56523.75;;;-140.56;83.79
10482;BME280;5288;42.334;23.876;2022-12-24T03:24:15;56515.84;;;-140.56;83.40
10482;BME280;5288;42.334;23.876;2022-12-24T03:26:43;56541.53;;;-140.56;83.85
10482;BME280;5288;42.334;23.876;2022-12-24T03:29:11;56511.91;;;-140.56;83.31
10482;BME280;5288;42.334;23.876;2022-12-24T03:31:41;56551.41;;;-140.56;83.52
10482;BME280;5288;42.334;23.876;2022-12-24T03:34:09;56533.63;;;-140.56;83.06
10482;BME280;5288;42.334;23.876;2022-12-24T03:36:37;56535.59;;;-140.56;83.47
10482;BME280;5288;42.334;23.876;2022-12-24T03:39:04;56537.59;;;-140.56;83.03
10482;BME280;5288;42.334;23.876;2022-12-24T03:41:32;56545.50;;;-140.56;83.34
10482;BME280;5288;42.334;23.876;2022-12-24T03:43:59;56509.91;;;-140.56;83.22
10482;BME280;5288;42.334;23.876;2022-12-24T03:46:26;56541.53;;;-140.56;83.61
10482;BME280;5288;42.334;23.876;2022-12-24T03:48:53;56553.41;;;-140.56;83.78
10482;BME280;5288;42.334;23.876;2022-12-24T03:51:23;56537.59;;;-140.56;84.32
10482;BME280;5288;42.334;23.876;2022-12-24T03:53:51;56567.22;;;-140.56;83.76
10482;BME280;5288;42.334;23.876;2022-12-24T03:56:18;56513.88;;;-140.56;82.97
10482;BME280;5288;42.334;23.876;2022-12-24T03:58:46;56498.06;;;-140.56;82.86
10482;BME280;5288;42.334;23.876;2022-12-24T04:01:13;56494.09;;;-140.56;82.58
10482;BME280;5288;42.334;23.876;2022-12-24T04:03:40;56502.00;;;-140.56;81.24
10482;BME280;5288;42.334;23.876;2022-12-24T04:06:09;56539.56;;;-140.56;80.59
10482;BME280;5288;42.334;23.876;2022-12-24T04:08:38;56523.75;;;-140.56;80.00
10482;BME280;5288;42.334;23.876;2022-12-24T04:11:06;56517.81;;;-140.56;80.13
10482;BME280;5288;42.334;23.876;2022-12-24T04:13:33;56527.72;;;-140.56;79.86
10482;BME280;5288;42.334;23.876;2022-12-24T04:16:02;56500.03;;;-140.56;79.24
10482;BME280;5288;42.334;23.876;2022-12-24T04:18:29;56529.69;;;-140.56;78.87
10482;BME280;5288;42.334;23.876;2022-12-24T04:20:56;56525.72;;;-140.56;79.41
10482;BME280;5288;42.334;23.876;2022-12-24T04:23:24;56513.88;;;-140.56;79.62
10482;BME280;5288;42.334;23.876;2022-12-24T04:25:52;56559.31;;;-140.56;79.64
10482;BME280;5288;42.334;23.876;2022-12-24T04:28:19;56505.97;;;-140.56;79.75
10482;BME280;5288;42.334;23.876;2022-12-24T04:30:46;56555.38;;;-140.56;79.57
10482;BME280;5288;42.334;23.876;2022-12-24T04:33:13;56535.59;;;-140.56;79.32
10482;BME280;5288;42.334;23.876;2022-12-24T04:35:40;56547.47;;;-140.56;79.09
10482;BME280;5288;42.334;23.876;2022-12-24T04:38:07;56537.59;;;-140.56;78.76
10482;BME280;5288;42.334;23.876;2022-12-24T04:40:35;56547.47;;;-140.56;79.43
10482;BME280;5288;42.334;23.876;2022-12-24T04:43:03;56527.72;;;-140.56;79.76
10482;BME280;5288;42.334;23.876;2022-12-24T04:45:30;56507.94;;;-140.56;79.29
10482;BME280;5288;42.334;23.876;2022-12-24T04:47:57;56529.69;;;-140.56;79.91
10482;BME280;5288;42.334;23.876;2022-12-24T04:50:24;56519.81;;;-140.56;79.51
10482;BME280;5288;42.334;23.876;2022-12-24T04:52:52;56478.28;;;-140.56;79.01
10482;BME280;5288;42.334;23.876;2022-12-24T04:55:19;56537.59;;;-140.56;78.89
10482;BME280;5288;42.334;23.876;2022-12-24T04:57:45;56500.03;;;-140.56;79.01
10482;BME280;5288;42.334;23.876;2022-12-24T05:00:14;56517.81;;;-140.56;78.93
10482;BME280;5288;42.334;23.876;2022-12-24T05:02:41;56513.88;;;-140.56;78.77
10482;BME280;5288;42.334;23.876;2022-12-24T05:05:08;56543.50;;;-140.56;78.59
10482;BME280;5288;42.334;23.876;2022-12-24T05:07:35;56490.16;;;-140.56;79.07
10482;BME280;5288;42.334;23.876;2022-12-24T05:10:03;56535.59;;;-140.56;79.27
10482;BME280;5288;42.334;23.876;2022-12-24T05:12:30;56565.25;;;-140.56;79.05
10482;BME280;5288;42.334;23.876;2022-12-24T05:14:57;56541.53;;;-140.56;78.56
10482;BME280;5288;42.334;23.876;2022-12-24T05:17:25;56525.72;;;-140.56;78.07
10482;BME280;5288;42.334;23.876;2022-12-24T05:19:52;56504.00;;;-140.56;77.81
10482;BME280;5288;42.334;23.876;2022-12-24T05:22:19;56527.72;;;-140.56;77.58
10482;BME280;5288;42.334;23.876;2022-12-24T05:25:00;56513.88;;;-140.56;77.80
10482;BME280;5288;42.334;23.876;2022-12-24T05:27:44;56525.72;;;-140.56;77.95
10482;BME280;5288;42.334;23.876;2022-12-24T05:30:11;56535.59;;;-140.56;77.78
10482;BME280;5288;42.334;23.876;2022-12-24T05:32:39;56519.81;;;-140.56;77.45
10482;BME280;5288;42.334;23.876;2022-12-24T05:35:07;56517.81;;;-140.56;77.40
10482;BME280;5288;42.334;23.876;2022-12-24T05:37:34;56529.69;;;-140.56;77.81
10482;BME280;5288;42.334;23.876;2022-12-24T05:40:01;56482.25;;;-140.56;77.83
10482;BME280;5288;42.334;23.876;2022-12-24T05:42:28;56490.16;;;-140.56;78.19
10482;BME280;5288;42.334;23.876;2022-12-24T05:44:55;56535.59;;;-140.56;77.38
10482;BME280;5288;42.334;23.876;2022-12-24T05:47:22;56541.53;;;-140.56;77.01
10482;BME280;5288;42.334;23.876;2022-12-24T05:49:50;56529.69;;;-140.56;77.42
10482;BME280;5288;42.334;23.876;2022-12-24T05:52:17;56525.72;;;-140.56;77.40
10482;BME280;5288;42.334;23.876;2022-12-24T05:54:44;56504.00;;;-140.56;77.92
10482;BME280;5288;42.334;23.876;2022-12-24T05:57:11;56488.19;;;-140.56;79.80
10482;BME280;5288;42.334;23.876;2022-12-24T06:02:23;56535.59;;;-140.56;81.13
10482;BME280;5288;42.334;23.876;2022-12-24T06:04:51;56533.63;;;-140.56;81.11
10482;BME280;5288;42.334;23.876;2022-12-24T06:07:18;56539.56;;;-140.56;81.91
10482;BME280;5288;42.334;23.876;2022-12-24T06:09:45;56521.78;;;-140.56;82.86
10482;BME280;5288;42.334;23.876;2022-12-24T06:12:12;56549.44;;;-140.56;83.02
10482;BME280;5288;42.334;23.876;2022-12-24T06:14:39;56539.56;;;-140.56;84.09
10482;BME280;5288;42.334;23.876;2022-12-24T06:17:06;56533.63;;;-140.56;83.98
10482;BME280;5288;42.334;23.876;2022-12-24T06:19:33;56525.72;;;-140.56;83.62
10482;BME280;5288;42.334;23.876;2022-12-24T06:22:01;56553.41;;;-140.56;83.27
10482;BME280;5288;42.334;23.876;2022-12-24T06:24:28;56531.66;;;-140.56;83.61
10482;BME280;5288;42.334;23.876;2022-12-24T06:26:55;56539.56;;;-140.56;83.26
10482;BME280;5288;42.334;23.876;2022-12-24T06:29:22;56535.59;;;-140.56;83.44
10482;BME280;5288;42.334;23.876;2022-12-24T06:31:49;56507.94;;;-140.56;83.66
10482;BME280;5288;42.334;23.876;2022-12-24T06:34:16;56502.00;;;-140.56;83.14
10482;BME280;5288;42.334;23.876;2022-12-24T06:36:43;56504.00;;;-140.56;83.04
10482;BME280;5288;42.334;23.876;2022-12-24T06:39:11;56519.81;;;-140.56;83.13
10482;BME280;5288;42.334;23.876;2022-12-24T06:41:38;56517.81;;;-140.56;83.59
10482;BME280;5288;42.334;23.876;2022-12-24T06:44:05;56505.97;;;-140.56;83.26
10482;BME280;5288;42.334;23.876;2022-12-24T06:46:32;56490.16;;;-140.56;83.80
10482;BME280;5288;42.334;23.876;2022-12-24T06:48:59;56527.72;;;-140.56;82.98
10482;BME280;5288;42.334;23.876;2022-12-24T06:51:26;56496.09;;;-140.56;83.17
10482;BME280;5288;42.334;23.876;2022-12-24T06:53:53;56488.19;;;-140.56;82.82
10482;BME280;5288;42.334;23.876;2022-12-24T06:56:21;56505.97;;;-140.56;82.75
10482;BME280;5288;42.334;23.876;2022-12-24T06:58:48;56460.50;;;-140.56;82.59
10482;BME280;5288;42.334;23.876;2022-12-24T07:01:17;56492.13;;;-140.56;82.34
10482;BME280;5288;42.334;23.876;2022-12-24T07:03:44;56515.84;;;-140.56;81.84
10482;BME280;5288;42.334;23.876;2022-12-24T07:06:16;56511.91;;;-140.56;81.46
10482;BME280;5288;42.334;23.876;2022-12-24T07:08:44;56474.34;;;-140.56;81.17
10482;BME280;5288;42.334;23.876;2022-12-24T07:11:11;56486.19;;;-140.56;80.90
10482;BME280;5288;42.334;23.876;2022-12-24T07:13:39;56494.09;;;-140.56;80.11
10482;BME280;5288;42.334;23.876;2022-12-24T07:16:06;56543.50;;;-140.56;79.91
10482;BME280;5288;42.334;23.876;2022-12-24T07:18:33;56505.97;;;-140.56;79.24
10482;BME280;5288;42.334;23.876;2022-12-24T07:21:02;56500.03;;;-140.56;79.19
10482;BME280;5288;42.334;23.876;2022-12-24T07:23:29;56494.09;;;-140.56;78.56
10482;BME280;5288;42.334;23.876;2022-12-24T07:25:59;56507.94;;;-140.56;78.29
10482;BME280;5288;42.334;23.876;2022-12-24T07:28:27;56507.94;;;-140.56;77.92
10482;BME280;5288;42.334;23.876;2022-12-24T07:30:55;56488.19;;;-140.56;77.46
10482;BME280;5288;42.334;23.876;2022-12-24T07:33:23;56507.94;;;-140.56;77.23
10482;BME280;5288;42.334;23.876;2022-12-24T07:35:57;56505.97;;;-140.56;77.01
10482;BME280;5288;42.334;23.876;2022-12-24T07:38:24;56482.25;;;-140.56;76.71
10482;BME280;5288;42.334;23.876;2022-12-24T07:40:51;56494.09;;;-140.56;76.33
10482;BME280;5288;42.334;23.876;2022-12-24T07:43:18;56482.25;;;-140.56;76.19
10482;BME280;5288;42.334;23.876;2022-12-24T07:45:45;56498.06;;;-140.56;76.47
10482;BME280;5288;42.334;23.876;2022-12-24T07:48:13;56498.06;;;-140.56;76.22
10482;BME280;5288;42.334;23.876;2022-12-24T07:50:40;56490.16;;;-140.56;76.28
10482;BME280;5288;42.334;23.876;2022-12-24T07:53:07;56504.00;;;-140.56;76.01
10482;BME280;5288;42.334;23.876;2022-12-24T07:55:35;56466.44;;;-140.56;76.16
10482;BME280;5288;42.334;23.876;2022-12-24T07:58:02;56478.28;;;-140.56;76.31
10482;BME280;5288;42.334;23.876;2022-12-24T08:00:29;56486.19;;;-140.56;76.29
10482;BME280;5288;42.334;23.876;2022-12-24T08:02:55;56500.03;;;-140.56;75.91
10482;BME280;5288;42.334;23.876;2022-12-24T08:05:26;56507.94;;;-140.56;75.37
10482;BME280;5288;42.334;23.876;2022-12-24T08:07:53;56466.44;;;-140.56;75.07
10482;BME280;5288;42.334;23.876;2022-12-24T08:10:20;56478.28;;;-140.56;74.52
10482;BME280;5288;42.334;23.876;2022-12-24T08:12:47;56464.47;;;-140.56;74.29
10482;BME280;5288;42.334;23.876;2022-12-24T08:15:14;56430.88;;;-140.56;73.99
10482;BME280;5288;42.334;23.876;2022-12-24T08:17:41;56460.50;;;-140.56;73.66
10482;BME280;5288;42.334;23.876;2022-12-24T08:20:09;56460.50;;;-140.56;73.23
10482;BME280;5288;42.334;23.876;2022-12-24T08:22:38;56505.97;;;-140.56;72.60
10482;BME280;5288;42.334;23.876;2022-12-24T08:25:06;56452.59;;;-140.56;72.20
10482;BME280;5288;42.334;23.876;2022-12-24T08:27:33;56450.63;;;-140.56;71.57
10482;BME280;5288;42.334;23.876;2022-12-24T08:30:00;56474.34;;;-140.56;71.26
10482;BME280;5288;42.334;23.876;2022-12-24T08:32:26;56440.75;;;-140.56;70.38
10482;BME280;5288;42.334;23.876;2022-12-24T08:34:53;56444.69;;;-140.56;70.57
10482;BME280;5288;42.334;23.876;2022-12-24T08:37:20;56492.13;;;-140.56;70.53
10482;BME280;5288;42.334;23.876;2022-12-24T08:39:49;56490.16;;;-140.56;70.02
10482;BME280;5288;42.334;23.876;2022-12-24T08:42:15;56387.38;;;-140.56;69.25
10482;BME280;5288;42.334;23.876;2022-12-24T08:44:42;56419.00;;;-140.56;68.96
10482;BME280;5288;42.334;23.876;2022-12-24T08:47:10;56450.63;;;-140.56;67.79
10482;BME280;5288;42.334;23.876;2022-12-24T08:49:37;56428.88;;;-140.56;67.57
10482;BME280;5288;42.334;23.876;2022-12-24T08:52:04;56424.94;;;-140.56;66.25
10482;BME280;5288;42.334;23.876;2022-12-24T08:54:31;56409.13;;;-140.56;65.47
10482;BME280;5288;42.334;23.876;2022-12-24T08:57:00;56409.13;;;-140.56;64.97
10482;BME280;5288;42.334;23.876;2022-12-24T08:59:27;56472.38;;;-140.56;64.45
10482;BME280;5288;42.334;23.876;2022-12-24T09:01:53;56409.13;;;-140.56;64.17
10482;BME280;5288;42.334;23.876;2022-12-24T09:04:20;56415.06;;;-140.56;63.86
10482;BME280;5288;42.334;23.876;2022-12-24T09:06:47;56422.97;;;-140.56;64.16
10482;BME280;5288;42.334;23.876;2022-12-24T09:09:14;56379.47;;;-140.56;63.46
10482;BME280;5288;42.334;23.876;2022-12-24T09:11:41;56399.25;;;-140.56;62.99
10482;BME280;5288;42.334;23.876;2022-12-24T09:14:11;56373.56;;;-140.56;62.32
10482;BME280;5288;42.334;23.876;2022-12-24T09:16:38;56393.31;;;-140.56;61.64
10482;BME280;5288;42.334;23.876;2022-12-24T09:19:05;56405.16;;;-140.56;61.30
10482;BME280;5288;42.334;23.876;2022-12-24T09:21:32;56389.34;;;-140.56;60.81
10482;BME280;5288;42.334;23.876;2022-12-24T09:23:59;56409.13;;;-140.56;60.85
10482;BME280;5288;42.334;23.876;2022-12-24T09:26:26;56399.25;;;-140.56;61.21
10482;BME280;5288;42.334;23.876;2022-12-24T09:28:57;56401.22;;;-140.56;60.75
10482;BME280;5288;42.334;23.876;2022-12-24T09:31:27;56399.25;;;-140.56;60.70
10482;BME280;5288;42.334;23.876;2022-12-24T09:33:54;56401.22;;;-140.56;60.73
10482;BME280;5288;42.334;23.876;2022-12-24T09:36:21;56409.13;;;-140.56;60.54
10482;BME280;5288;42.334;23.876;2022-12-24T09:38:48;56426.91;;;-140.56;60.56
10482;BME280;5288;42.334;23.876;2022-12-24T09:41:35;56409.13;;;-140.56;61.13
10482;BME280;5288;42.334;23.876;2022-12-24T09:44:26;56391.34;;;-140.56;60.56
10482;BME280;5288;42.334;23.876;2022-12-24T09:47:00;56446.69;;;-140.56;61.01
10482;BME280;5288;42.334;23.876;2022-12-24T09:49:36;56383.44;;;-140.56;60.91
10482;BME280;5288;42.334;23.876;2022-12-24T09:52:07;56419.00;;;-140.56;61.30
10482;BME280;5288;42.334;23.876;2022-12-24T09:54:40;56428.88;;;-140.56;60.85
10482;BME280;5288;42.334;23.876;2022-12-24T09:57:13;56403.19;;;-140.56;61.13
10482;BME280;5288;42.334;23.876;2022-12-24T09:59:44;56375.53;;;-140.56;61.09
10482;BME280;5288;42.334;23.876;2022-12-24T10:02:15;56401.22;;;-140.56;60.43
10482;BME280;5288;42.334;23.876;2022-12-24T10:04:43;56403.19;;;-140.56;60.28
10482;BME280;5288;42.334;23.876;2022-12-24T10:07:24;56403.19;;;-140.56;60.16
10482;BME280;5288;42.334;23.876;2022-12-24T10:10:00;56405.16;;;-140.56;59.52
10482;BME280;5288;42.334;23.876;2022-12-24T10:12:33;56389.34;;;-140.56;59.32
10482;BME280;5288;42.334;23.876;2022-12-24T10:15:09;56397.25;;;-140.56;59.37
10482;BME280;5288;42.334;23.876;2022-12-24T10:17:48;56385.41;;;-140.56;59.44
10482;BME280;5288;42.334;23.876;2022-12-24T10:20:38;56424.94;;;-140.56;58.96
10482;BME280;5288;42.334;23.876;2022-12-24T10:23:14;56401.22;;;-140.56;58.64
10482;BME280;5288;42.334;23.876;2022-12-24T10:25:48;56381.44;;;-140.56;58.24
10482;BME280;5288;42.334;23.876;2022-12-24T10:28:21;56395.28;;;-140.56;58.11
10482;BME280;5288;42.334;23.876;2022-12-24T10:30:54;56347.84;;;-140.56;58.31
10482;BME280;5288;42.334;23.876;2022-12-24T10:33:29;56401.22;;;-140.56;57.80
10482;BME280;5288;42.334;23.876;2022-12-24T10:35:57;56371.56;;;-140.56;57.62
10482;BME280;5288;42.334;23.876;2022-12-24T10:38:24;56387.38;;;-140.56;57.30
10482;BME280;5288;42.334;23.876;2022-12-24T10:40:53;56330.06;;;-140.56;57.13
10482;BME280;5288;42.334;23.876;2022-12-24T10:43:23;56339.94;;;-140.56;57.02
10482;BME280;5288;42.334;23.876;2022-12-24T10:45:52;56367.63;;;-140.56;56.99
10482;BME280;5288;42.334;23.876;2022-12-24T10:48:24;56377.50;;;-140.56;57.10
10482;BME280;5288;42.334;23.876;2022-12-24T10:51:00;56381.44;;;-140.56;56.77
10482;BME280;5288;42.334;23.876;2022-12-24T10:53:37;56375.53;;;-140.56;56.88
10482;BME280;5288;42.334;23.876;2022-12-24T10:56:08;56363.66;;;-140.56;56.71
10482;BME280;5288;42.334;23.876;2022-12-24T10:58:42;56355.75;;;-140.56;56.26
10482;BME280;5288;42.334;23.876;2022-12-24T11:01:10;56336.00;;;-140.56;56.43
10482;BME280;5288;42.334;23.876;2022-12-24T11:03:37;56391.34;;;-140.56;56.11
10482;BME280;5288;42.334;23.876;2022-12-24T11:06:13;56369.59;;;-140.56;56.81
10482;BME280;5288;42.334;23.876;2022-12-24T11:08:43;56393.31;;;-140.56;56.30
10482;BME280;5288;42.334;23.876;2022-12-24T11:11:12;56361.69;;;-140.56;56.37
10482;BME280;5288;42.334;23.876;2022-12-24T11:13:42;56357.75;;;-140.56;56.18
10482;BME280;5288;42.334;23.876;2022-12-24T11:16:16;56322.16;;;-140.56;55.99
10482;BME280;5288;42.334;23.876;2022-12-24T11:18:47;56347.84;;;-140.56;55.26
10482;BME280;5288;42.334;23.876;2022-12-24T11:21:21;56381.44;;;-140.56;54.69
10482;BME280;5288;42.334;23.876;2022-12-24T11:23:52;56326.13;;;-140.56;54.85
10482;BME280;5288;42.334;23.876;2022-12-24T11:26:21;56385.41;;;-140.56;55.28
10482;BME280;5288;42.334;23.876;2022-12-24T11:29:10;56367.63;;;-140.56;54.47
10482;BME280;5288;42.334;23.876;2022-12-24T11:31:38;56357.75;;;-140.56;53.76
10482;BME280;5288;42.334;23.876;2022-12-24T11:34:26;56363.66;;;-140.56;53.96
10482;BME280;5288;42.334;23.876;2022-12-24T11:37:08;56341.94;;;-140.56;53.75
10482;BME280;5288;42.334;23.876;2022-12-24T11:39:39;56345.88;;;-140.56;53.61
10482;BME280;5288;42.334;23.876;2022-12-24T11:42:24;56355.75;;;-140.56;52.65
10482;BME280;5288;42.334;23.876;2022-12-24T11:44:54;56375.53;;;-140.56;52.67
10482;BME280;5288;42.334;23.876;2022-12-24T11:47:31;56343.91;;;-140.56;51.98
10482;BME280;5288;42.334;23.876;2022-12-24T11:50:18;56318.22;;;-140.56;52.33
10482;BME280;5288;42.334;23.876;2022-12-24T11:52:48;56349.84;;;-140.56;51.60
10482;BME280;5288;42.334;23.876;2022-12-24T11:55:19;56355.75;;;-140.56;51.97
10482;BME280;5288;42.334;23.876;2022-12-24T11:57:56;56326.13;;;-140.56;51.88
10482;BME280;5288;42.334;23.876;2022-12-24T12:00:24;56336.00;;;-140.56;51.29
10482;BME280;5288;42.334;23.876;2022-12-24T12:02:54;56341.94;;;-140.56;51.62
10482;BME280;5288;42.334;23.876;2022-12-24T12:05:26;56336.00;;;-140.56;51.68
10482;BME280;5288;42.334;23.876;2022-12-24T12:08:00;56336.00;;;-140.56;51.35
10482;BME280;5288;42.334;23.876;2022-12-24T12:10:31;56316.25;;;-140.56;51.73
10482;BME280;5288;42.334;23.876;2022-12-24T12:13:04;56345.88;;;-140.56;51.37
10482;BME280;5288;42.334;23.876;2022-12-24T12:15:33;56361.69;;;-140.56;50.94
10482;BME280;5288;42.334;23.876;2022-12-24T12:18:05;56365.66;;;-140.56;50.76
10482;BME280;5288;42.334;23.876;2022-12-24T12:20:36;56314.25;;;-140.56;50.71
10482;BME280;5288;42.334;23.876;2022-12-24T12:23:13;56302.41;;;-140.56;50.95
10482;BME280;5288;42.334;23.876;2022-12-24T12:25:44;56302.41;;;-140.56;51.10
10482;BME280;5288;42.334;23.876;2022-12-24T12:28:19;56314.25;;;-140.56;50.68
10482;BME280;5288;42.334;23.876;2022-12-24T12:30:55;56296.47;;;-140.56;49.89
10482;BME280;5288;42.334;23.876;2022-12-24T12:33:30;56339.94;;;-140.56;49.56
10482;BME280;5288;42.334;23.876;2022-12-24T12:35:59;56334.03;;;-140.56;50.57
10482;BME280;5288;42.334;23.876;2022-12-24T12:38:28;56341.94;;;-140.56;50.40
10482;BME280;5288;42.334;23.876;2022-12-24T12:41:03;56320.19;;;-140.56;50.37
10482;BME280;5288;42.334;23.876;2022-12-24T12:46:42;56324.13;;;-140.56;50.48
10482;BME280;5288;42.334;23.876;2022-12-24T12:49:26;56345.88;;;-140.56;50.96
10482;BME280;5288;42.334;23.876;2022-12-24T12:52:02;56357.75;;;-140.56;50.29
10482;BME280;5288;42.334;23.876;2022-12-24T12:54:48;56318.22;;;-140.56;50.64
10482;BME280;5288;42.334;23.876;2022-12-24T12:57:22;56353.78;;;-140.56;50.60
10482;BME280;5288;42.334;23.876;2022-12-24T12:59:57;56343.91;;;-140.56;51.09
10482;BME280;5288;42.334;23.876;2022-12-24T13:02:40;56326.13;;;-140.56;51.39